sensor_id;sensor_type;location;lat;lon;timestamp;P1;durP1;ratioP1;P2;durP2;ratioP2
77581;SDS011;66726;52.388;9.986;2023-06-22T00:00:26;17.43;;;15.93;;
77581;SDS011;66726;52.388;9.986;2023-06-22T00:02:58;17.97;;;16.37;;
77581;SDS011;66726;52.388;9.986;2023-06-22T00:05:30;18.67;;;16.93;;
77581;SDS011;66726;52.388;9.986;2023-06-22T00:08:02;17.67;;;16.03;;
77581;SDS011;66726;52.388;9.986;2023-06-22T00:10:35;18.03;;;16.53;;
77581;SDS011;66726;52.388;9.986;2023-06-22T00:13:07;18.70;;;17.10;;
77581;SDS011;66726;52.388;9.986;2023-06-22T00:15:41;18.10;;;16.53;;
77581;SDS011;66726;52.388;9.986;2023-06-22T00:18:13;17.40;;;15.93;;
77581;SDS011;66726;52.388;9.986;2023-06-22T00:20:45;17.77;;;16.20;;
77581;SDS011;66726;52.388;9.986;2023-06-22T00:23:17;16.70;;;15.17;;
77581;SDS011;66726;52.388;9.986;2023-06-22T00:25:50;18.10;;;16.47;;
77581;SDS011;66726;52.388;9.986;2023-06-22T00:28:21;17.40;;;15.90;;
77581;SDS011;66726;52.388;9.986;2023-06-22T00:30:56;16.90;;;15.40;;
77581;SDS011;66726;52.388;9.986;2023-06-22T00:33:28;16.63;;;15.23;;
77581;SDS011;66726;52.388;9.986;2023-06-22T00:36:00;16.87;;;15.20;;
77581;SDS011;66726;52.388;9.986;2023-06-22T00:38:32;16.53;;;15.07;;
77581;SDS011;66726;52.388;9.986;2023-06-22T00:41:06;16.70;;;15.13;;
77581;SDS011;66726;52.388;9.986;2023-06-22T00:43:38;17.17;;;15.57;;
77581;SDS011;66726;52.388;9.986;2023-06-22T00:46:11;16.77;;;15.27;;
77581;SDS011;66726;52.388;9.986;2023-06-22T00:48:43;16.93;;;15.23;;
77581;SDS011;66726;52.388;9.986;2023-06-22T00:51:15;17.00;;;15.33;;
77581;SDS011;66726;52.388;9.986;2023-06-22T00:53:50;16.50;;;15.10;;
77581;SDS011;66726;52.388;9.986;2023-06-22T00:56:22;17.23;;;15.80;;
77581;SDS011;66726;52.388;9.986;2023-06-22T00:58:56;17.90;;;16.30;;
77581;SDS011;66726;52.388;9.986;2023-06-22T01:01:31;17.70;;;16.10;;
77581;SDS011;66726;52.388;9.986;2023-06-22T01:04:07;17.57;;;15.87;;
77581;SDS011;66726;52.388;9.986;2023-06-22T01:06:41;16.90;;;15.40;;
77581;SDS011;66726;52.388;9.986;2023-06-22T01:09:27;16.93;;;15.53;;
77581;SDS011;66726;52.388;9.986;2023-06-22T01:12:11;17.60;;;16.00;;
77581;SDS011;66726;52.388;9.986;2023-06-22T01:14:47;16.83;;;15.33;;
77581;SDS011;66726;52.388;9.986;2023-06-22T01:17:30;17.17;;;15.67;;
77581;SDS011;66726;52.388;9.986;2023-06-22T01:20:08;17.07;;;15.40;;
77581;SDS011;66726;52.388;9.986;2023-06-22T01:22:46;16.43;;;15.13;;
77581;SDS011;66726;52.388;9.986;2023-06-22T01:25:33;18.87;;;15.63;;
77581;SDS011;66726;52.388;9.986;2023-06-22T01:28:23;17.70;;;16.03;;
77581;SDS011;66726;52.388;9.986;2023-06-22T01:31:08;17.13;;;15.53;;
77581;SDS011;66726;52.388;9.986;2023-06-22T01:33:45;16.70;;;15.20;;
77581;SDS011;66726;52.388;9.986;2023-06-22T01:36:19;16.70;;;15.13;;
77581;SDS011;66726;52.388;9.986;2023-06-22T01:38:53;15.70;;;14.30;;
77581;SDS011;66726;52.388;9.986;2023-06-22T01:41:26;15.87;;;14.27;;
77581;SDS011;66726;52.388;9.986;2023-06-22T01:44:03;15.80;;;14.23;;
77581;SDS011;66726;52.388;9.986;2023-06-22T01:46:38;15.00;;;13.67;;
77581;SDS011;66726;52.388;9.986;2023-06-22T01:49:11;14.27;;;13.07;;
77581;SDS011;66726;52.388;9.986;2023-06-22T01:51:45;15.13;;;13.70;;
77581;SDS011;66726;52.388;9.986;2023-06-22T01:54:17;15.43;;;13.90;;
77581;SDS011;66726;52.388;9.986;2023-06-22T01:56:49;15.53;;;13.93;;
77581;SDS011;66726;52.388;9.986;2023-06-22T01:59:24;13.93;;;12.73;;
77581;SDS011;66726;52.388;9.986;2023-06-22T02:02:04;14.63;;;13.13;;
77581;SDS011;66726;52.388;9.986;2023-06-22T02:04:41;13.63;;;12.27;;
77581;SDS011;66726;52.388;9.986;2023-06-22T02:07:19;12.47;;;11.27;;
77581;SDS011;66726;52.388;9.986;2023-06-22T02:09:55;13.53;;;12.17;;
77581;SDS011;66726;52.388;9.986;2023-06-22T02:12:29;12.80;;;11.50;;
77581;SDS011;66726;52.388;9.986;2023-06-22T02:15:06;13.27;;;11.37;;
77581;SDS011;66726;52.388;9.986;2023-06-22T02:17:40;14.50;;;12.00;;
77581;SDS011;66726;52.388;9.986;2023-06-22T02:20:12;12.80;;;11.60;;
77581;SDS011;66726;52.388;9.986;2023-06-22T02:22:44;12.33;;;11.23;;
77581;SDS011;66726;52.388;9.986;2023-06-22T02:25:16;13.37;;;12.07;;
77581;SDS011;66726;52.388;9.986;2023-06-22T02:27:48;12.87;;;11.60;;
77581;SDS011;66726;52.388;9.986;2023-06-22T02:30:21;14.23;;;12.83;;
77581;SDS011;66726;52.388;9.986;2023-06-22T02:32:53;12.70;;;11.50;;
77581;SDS011;66726;52.388;9.986;2023-06-22T02:35:26;13.67;;;12.27;;
77581;SDS011;66726;52.388;9.986;2023-06-22T02:38:02;11.90;;;10.70;;
77581;SDS011;66726;52.388;9.986;2023-06-22T02:40:34;13.50;;;12.40;;
77581;SDS011;66726;52.388;9.986;2023-06-22T02:43:06;12.67;;;11.37;;
77581;SDS011;66726;52.388;9.986;2023-06-22T02:45:39;12.63;;;11.33;;
77581;SDS011;66726;52.388;9.986;2023-06-22T02:48:11;13.37;;;11.80;;
77581;SDS011;66726;52.388;9.986;2023-06-22T02:50:43;12.50;;;11.40;;
77581;SDS011;66726;52.388;9.986;2023-06-22T02:53:15;11.77;;;10.77;;
77581;SDS011;66726;52.388;9.986;2023-06-22T02:55:47;14.00;;;11.00;;
77581;SDS011;66726;52.388;9.986;2023-06-22T02:58:19;12.33;;;11.23;;
77581;SDS011;66726;52.388;9.986;2023-06-22T03:00:52;13.20;;;11.67;;
77581;SDS011;66726;52.388;9.986;2023-06-22T03:03:30;11.63;;;10.63;;
77581;SDS011;66726;52.388;9.986;2023-06-22T03:06:02;12.23;;;11.13;;
77581;SDS011;66726;52.388;9.986;2023-06-22T03:08:40;12.13;;;11.03;;
77581;SDS011;66726;52.388;9.986;2023-06-22T03:11:12;13.73;;;11.27;;
77581;SDS011;66726;52.388;9.986;2023-06-22T03:13:43;12.33;;;11.23;;
77581;SDS011;66726;52.388;9.986;2023-06-22T03:16:17;12.00;;;10.77;;
77581;SDS011;66726;52.388;9.986;2023-06-22T03:18:48;12.60;;;11.50;;
77581;SDS011;66726;52.388;9.986;2023-06-22T03:21:21;12.43;;;11.33;;
77581;SDS011;66726;52.388;9.986;2023-06-22T03:23:58;12.90;;;11.67;;
77581;SDS011;66726;52.388;9.986;2023-06-22T03:26:30;12.53;;;11.37;;
77581;SDS011;66726;52.388;9.986;2023-06-22T03:29:02;11.37;;;10.30;;
77581;SDS011;66726;52.388;9.986;2023-06-22T03:31:35;12.60;;;11.30;;
77581;SDS011;66726;52.388;9.986;2023-06-22T03:34:07;11.40;;;10.40;;
77581;SDS011;66726;52.388;9.986;2023-06-22T03:36:38;11.87;;;10.80;;
77581;SDS011;66726;52.388;9.986;2023-06-22T03:39:11;11.73;;;10.63;;
77581;SDS011;66726;52.388;9.986;2023-06-22T03:41:43;12.07;;;10.97;;
77581;SDS011;66726;52.388;9.986;2023-06-22T03:44:15;12.37;;;11.17;;
77581;SDS011;66726;52.388;9.986;2023-06-22T03:46:48;11.73;;;10.63;;
77581;SDS011;66726;52.388;9.986;2023-06-22T03:49:20;11.37;;;10.27;;
77581;SDS011;66726;52.388;9.986;2023-06-22T03:51:52;12.37;;;11.17;;
77581;SDS011;66726;52.388;9.986;2023-06-22T03:54:38;11.57;;;10.57;;
77581;SDS011;66726;52.388;9.986;2023-06-22T03:57:09;12.03;;;10.90;;
77581;SDS011;66726;52.388;9.986;2023-06-22T03:59:41;11.63;;;10.63;;
77581;SDS011;66726;52.388;9.986;2023-06-22T04:02:14;12.60;;;11.37;;
77581;SDS011;66726;52.388;9.986;2023-06-22T04:04:46;12.53;;;11.37;;
77581;SDS011;66726;52.388;9.986;2023-06-22T04:07:19;12.90;;;11.70;;
77581;SDS011;66726;52.388;9.986;2023-06-22T04:09:50;14.70;;;13.20;;
77581;SDS011;66726;52.388;9.986;2023-06-22T04:12:22;13.77;;;12.47;;
77581;SDS011;66726;52.388;9.986;2023-06-22T04:14:54;13.37;;;12.17;;
77581;SDS011;66726;52.388;9.986;2023-06-22T04:17:27;12.60;;;11.40;;
77581;SDS011;66726;52.388;9.986;2023-06-22T04:19:59;11.20;;;10.10;;
77581;SDS011;66726;52.388;9.986;2023-06-22T04:22:31;10.53;;;9.63;;
77581;SDS011;66726;52.388;9.986;2023-06-22T04:25:03;12.33;;;11.03;;
77581;SDS011;66726;52.388;9.986;2023-06-22T04:27:37;12.97;;;10.47;;
77581;SDS011;66726;52.388;9.986;2023-06-22T04:30:09;11.37;;;10.33;;
77581;SDS011;66726;52.388;9.986;2023-06-22T04:32:44;11.97;;;10.90;;
77581;SDS011;66726;52.388;9.986;2023-06-22T04:35:24;11.27;;;10.27;;
77581;SDS011;66726;52.388;9.986;2023-06-22T04:37:57;11.80;;;10.70;;
77581;SDS011;66726;52.388;9.986;2023-06-22T04:40:29;12.57;;;11.40;;
77581;SDS011;66726;52.388;9.986;2023-06-22T04:43:01;12.27;;;11.17;;
77581;SDS011;66726;52.388;9.986;2023-06-22T04:45:33;12.13;;;10.37;;
77581;SDS011;66726;52.388;9.986;2023-06-22T04:48:06;12.27;;;10.97;;
77581;SDS011;66726;52.388;9.986;2023-06-22T04:50:42;11.70;;;10.63;;
77581;SDS011;66726;52.388;9.986;2023-06-22T04:53:13;12.53;;;11.40;;
77581;SDS011;66726;52.388;9.986;2023-06-22T04:55:45;12.60;;;11.30;;
77581;SDS011;66726;52.388;9.986;2023-06-22T04:58:19;12.90;;;11.63;;
77581;SDS011;66726;52.388;9.986;2023-06-22T05:00:55;11.03;;;10.03;;
77581;SDS011;66726;52.388;9.986;2023-06-22T05:03:27;12.60;;;11.50;;
77581;SDS011;66726;52.388;9.986;2023-06-22T05:05:59;12.30;;;11.20;;
77581;SDS011;66726;52.388;9.986;2023-06-22T05:08:31;11.37;;;10.23;;
77581;SDS011;66726;52.388;9.986;2023-06-22T05:11:03;12.63;;;11.47;;
77581;SDS011;66726;52.388;9.986;2023-06-22T05:13:35;11.03;;;10.13;;
77581;SDS011;66726;52.388;9.986;2023-06-22T05:16:07;11.50;;;10.40;;
77581;SDS011;66726;52.388;9.986;2023-06-22T05:18:40;12.10;;;11.00;;
77581;SDS011;66726;52.388;9.986;2023-06-22T05:21:13;9.67;;;8.77;;
77581;SDS011;66726;52.388;9.986;2023-06-22T05:23:45;10.60;;;9.60;;
77581;SDS011;66726;52.388;9.986;2023-06-22T05:26:17;11.87;;;10.67;;
77581;SDS011;66726;52.388;9.986;2023-06-22T05:28:49;11.03;;;9.93;;
77581;SDS011;66726;52.388;9.986;2023-06-22T05:31:23;11.37;;;10.10;;
77581;SDS011;66726;52.388;9.986;2023-06-22T05:33:56;11.70;;;10.50;;
77581;SDS011;66726;52.388;9.986;2023-06-22T05:36:28;12.03;;;10.93;;
77581;SDS011;66726;52.388;9.986;2023-06-22T05:39:10;13.67;;;12.27;;
77581;SDS011;66726;52.388;9.986;2023-06-22T05:41:42;13.57;;;12.47;;
77581;SDS011;66726;52.388;9.986;2023-06-22T05:44:15;11.30;;;10.20;;
77581;SDS011;66726;52.388;9.986;2023-06-22T05:46:47;13.97;;;12.33;;
77581;SDS011;66726;52.388;9.986;2023-06-22T05:49:20;11.37;;;10.27;;
77581;SDS011;66726;52.388;9.986;2023-06-22T05:51:58;12.27;;;11.07;;
77581;SDS011;66726;52.388;9.986;2023-06-22T05:54:30;11.90;;;10.77;;
77581;SDS011;66726;52.388;9.986;2023-06-22T05:57:02;10.20;;;9.30;;
77581;SDS011;66726;52.388;9.986;2023-06-22T05:59:35;10.23;;;9.23;;
77581;SDS011;66726;52.388;9.986;2023-06-22T06:02:07;13.40;;;10.73;;
77581;SDS011;66726;52.388;9.986;2023-06-22T06:04:40;12.23;;;11.13;;
77581;SDS011;66726;52.388;9.986;2023-06-22T06:07:12;12.63;;;11.43;;
77581;SDS011;66726;52.388;9.986;2023-06-22T06:09:44;13.00;;;11.83;;
77581;SDS011;66726;52.388;9.986;2023-06-22T06:12:16;12.43;;;11.23;;
77581;SDS011;66726;52.388;9.986;2023-06-22T06:14:48;12.77;;;11.57;;
77581;SDS011;66726;52.388;9.986;2023-06-22T06:17:22;10.87;;;9.80;;
77581;SDS011;66726;52.388;9.986;2023-06-22T06:19:55;11.00;;;10.00;;
77581;SDS011;66726;52.388;9.986;2023-06-22T06:22:31;11.17;;;10.07;;
77581;SDS011;66726;52.388;9.986;2023-06-22T06:25:03;12.70;;;10.13;;
77581;SDS011;66726;52.388;9.986;2023-06-22T06:27:42;11.80;;;10.57;;
77581;SDS011;66726;52.388;9.986;2023-06-22T06:30:17;10.70;;;9.70;;
77581;SDS011;66726;52.388;9.986;2023-06-22T06:32:50;10.67;;;9.60;;
77581;SDS011;66726;52.388;9.986;2023-06-22T06:35:23;9.23;;;8.43;;
77581;SDS011;66726;52.388;9.986;2023-06-22T06:37:55;9.73;;;8.73;;
77581;SDS011;66726;52.388;9.986;2023-06-22T06:40:28;9.97;;;9.17;;
77581;SDS011;66726;52.388;9.986;2023-06-22T06:43:00;9.60;;;8.63;;
77581;SDS011;66726;52.388;9.986;2023-06-22T06:45:32;9.63;;;8.40;;
77581;SDS011;66726;52.388;9.986;2023-06-22T06:48:04;8.77;;;7.20;;
77581;SDS011;66726;52.388;9.986;2023-06-22T06:50:38;9.73;;;8.40;;
77581;SDS011;66726;52.388;9.986;2023-06-22T06:53:10;8.90;;;8.00;;
77581;SDS011;66726;52.388;9.986;2023-06-22T06:55:42;8.60;;;7.70;;
77581;SDS011;66726;52.388;9.986;2023-06-22T06:58:14;9.07;;;8.17;;
77581;SDS011;66726;52.388;9.986;2023-06-22T07:00:46;7.67;;;6.97;;
77581;SDS011;66726;52.388;9.986;2023-06-22T07:03:18;7.73;;;7.13;;
77581;SDS011;66726;52.388;9.986;2023-06-22T07:05:51;8.80;;;7.10;;
77581;SDS011;66726;52.388;9.986;2023-06-22T07:08:23;7.27;;;6.57;;
77581;SDS011;66726;52.388;9.986;2023-06-22T07:10:55;7.33;;;6.50;;
77581;SDS011;66726;52.388;9.986;2023-06-22T07:13:27;7.33;;;6.63;;
77581;SDS011;66726;52.388;9.986;2023-06-22T07:16:00;7.27;;;6.27;;
77581;SDS011;66726;52.388;9.986;2023-06-22T07:18:31;10.13;;;6.73;;
77581;SDS011;66726;52.388;9.986;2023-06-22T07:21:05;6.90;;;6.20;;
77581;SDS011;66726;52.388;9.986;2023-06-22T07:23:36;8.60;;;6.67;;
77581;SDS011;66726;52.388;9.986;2023-06-22T07:26:08;8.70;;;6.20;;
77581;SDS011;66726;52.388;9.986;2023-06-22T07:28:42;7.40;;;6.70;;
77581;SDS011;66726;52.388;9.986;2023-06-22T07:31:14;7.47;;;6.77;;
77581;SDS011;66726;52.388;9.986;2023-06-22T07:33:47;8.43;;;7.63;;
77581;SDS011;66726;52.388;9.986;2023-06-22T07:36:20;8.03;;;7.23;;
77581;SDS011;66726;52.388;9.986;2023-06-22T07:38:53;7.40;;;6.43;;
77581;SDS011;66726;52.388;9.986;2023-06-22T07:41:24;9.93;;;7.97;;
77581;SDS011;66726;52.388;9.986;2023-06-22T07:43:56;6.87;;;6.17;;
77581;SDS011;66726;52.388;9.986;2023-06-22T07:46:29;7.47;;;6.83;;
77581;SDS011;66726;52.388;9.986;2023-06-22T07:49:01;8.53;;;7.80;;
77581;SDS011;66726;52.388;9.986;2023-06-22T07:51:36;9.43;;;7.07;;
77581;SDS011;66726;52.388;9.986;2023-06-22T07:54:10;7.47;;;6.77;;
77581;SDS011;66726;52.388;9.986;2023-06-22T07:56:42;7.47;;;6.87;;
77581;SDS011;66726;52.388;9.986;2023-06-22T07:59:15;9.23;;;7.73;;
77581;SDS011;66726;52.388;9.986;2023-06-22T08:01:47;8.40;;;7.60;;
77581;SDS011;66726;52.388;9.986;2023-06-22T08:04:19;8.77;;;7.87;;
77581;SDS011;66726;52.388;9.986;2023-06-22T08:06:52;10.10;;;8.07;;
77581;SDS011;66726;52.388;9.986;2023-06-22T08:09:24;9.57;;;8.03;;
77581;SDS011;66726;52.388;9.986;2023-06-22T08:11:58;12.53;;;8.23;;
77581;SDS011;66726;52.388;9.986;2023-06-22T08:14:30;14.60;;;9.07;;
77581;SDS011;66726;52.388;9.986;2023-06-22T08:17:03;8.67;;;7.57;;
77581;SDS011;66726;52.388;9.986;2023-06-22T08:19:35;9.63;;;8.73;;
77581;SDS011;66726;52.388;9.986;2023-06-22T08:22:10;10.53;;;9.47;;
77581;SDS011;66726;52.388;9.986;2023-06-22T08:24:42;9.30;;;8.13;;
77581;SDS011;66726;52.388;9.986;2023-06-22T08:27:15;9.20;;;8.30;;
77581;SDS011;66726;52.388;9.986;2023-06-22T08:29:50;10.50;;;9.40;;
77581;SDS011;66726;52.388;9.986;2023-06-22T08:32:26;9.03;;;8.23;;
77581;SDS011;66726;52.388;9.986;2023-06-22T08:35:00;12.47;;;11.13;;
77581;SDS011;66726;52.388;9.986;2023-06-22T08:37:36;11.67;;;10.20;;
77581;SDS011;66726;52.388;9.986;2023-06-22T08:40:09;14.23;;;12.83;;
77581;SDS011;66726;52.388;9.986;2023-06-22T08:42:41;10.33;;;9.40;;
77581;SDS011;66726;52.388;9.986;2023-06-22T08:45:14;11.17;;;10.10;;
77581;SDS011;66726;52.388;9.986;2023-06-22T08:47:48;12.77;;;10.70;;
77581;SDS011;66726;52.388;9.986;2023-06-22T08:50:19;13.37;;;12.00;;
77581;SDS011;66726;52.388;9.986;2023-06-22T08:52:53;12.43;;;11.17;;
77581;SDS011;66726;52.388;9.986;2023-06-22T08:55:24;10.93;;;9.90;;
77581;SDS011;66726;52.388;9.986;2023-06-22T08:57:57;15.10;;;13.63;;
77581;SDS011;66726;52.388;9.986;2023-06-22T09:00:31;15.40;;;14.00;;
77581;SDS011;66726;52.388;9.986;2023-06-22T09:03:05;13.20;;;12.03;;
77581;SDS011;66726;52.388;9.986;2023-06-22T09:05:37;12.10;;;10.93;;
77581;SDS011;66726;52.388;9.986;2023-06-22T09:08:11;15.43;;;13.90;;
77581;SDS011;66726;52.388;9.986;2023-06-22T09:10:43;11.83;;;10.83;;
77581;SDS011;66726;52.388;9.986;2023-06-22T09:13:15;14.73;;;13.27;;
77581;SDS011;66726;52.388;9.986;2023-06-22T09:15:48;16.37;;;14.67;;
77581;SDS011;66726;52.388;9.986;2023-06-22T09:18:20;17.07;;;15.43;;
77581;SDS011;66726;52.388;9.986;2023-06-22T09:20:52;13.53;;;12.13;;
77581;SDS011;66726;52.388;9.986;2023-06-22T09:23:25;13.57;;;12.17;;
77581;SDS011;66726;52.388;9.986;2023-06-22T09:25:59;14.13;;;12.80;;
77581;SDS011;66726;52.388;9.986;2023-06-22T09:28:30;13.90;;;12.43;;
77581;SDS011;66726;52.388;9.986;2023-06-22T09:31:02;13.03;;;11.73;;
77581;SDS011;66726;52.388;9.986;2023-06-22T09:33:35;12.90;;;11.70;;
77581;SDS011;66726;52.388;9.986;2023-06-22T09:36:07;13.83;;;12.37;;
77581;SDS011;66726;52.388;9.986;2023-06-22T09:38:40;11.03;;;10.10;;
77581;SDS011;66726;52.388;9.986;2023-06-22T09:41:12;13.07;;;11.87;;
77581;SDS011;66726;52.388;9.986;2023-06-22T09:43:44;15.67;;;14.13;;
77581;SDS011;66726;52.388;9.986;2023-06-22T09:46:16;14.18;;;11.13;;
77581;SDS011;66726;52.388;9.986;2023-06-22T09:48:51;14.65;;;12.80;;
77581;SDS011;66726;52.388;9.986;2023-06-22T09:51:23;13.45;;;12.05;;
77581;SDS011;66726;52.388;9.986;2023-06-22T09:53:56;13.80;;;12.50;;
77581;SDS011;66726;52.388;9.986;2023-06-22T09:56:28;15.07;;;13.60;;
77581;SDS011;66726;52.388;9.986;2023-06-22T09:58:59;13.15;;;11.88;;
77581;SDS011;66726;52.388;9.986;2023-06-22T10:01:43;15.77;;;14.07;;
77581;SDS011;66726;52.388;9.986;2023-06-22T10:04:15;14.18;;;12.88;;
77581;SDS011;66726;52.388;9.986;2023-06-22T10:06:48;14.52;;;13.10;;
77581;SDS011;66726;52.388;9.986;2023-06-22T10:09:21;13.70;;;12.50;;
77581;SDS011;66726;52.388;9.986;2023-06-22T10:11:53;12.90;;;11.70;;
77581;SDS011;66726;52.388;9.986;2023-06-22T10:14:25;15.27;;;13.80;;
77581;SDS011;66726;52.388;9.986;2023-06-22T10:16:57;14.98;;;13.68;;
77581;SDS011;66726;52.388;9.986;2023-06-22T10:19:29;13.40;;;12.02;;
77581;SDS011;66726;52.388;9.986;2023-06-22T10:22:03;17.88;;;16.05;;
77581;SDS011;66726;52.388;9.986;2023-06-22T10:24:37;15.73;;;14.32;;
77581;SDS011;66726;52.388;9.986;2023-06-22T10:27:10;14.48;;;13.15;;
77581;SDS011;66726;52.388;9.986;2023-06-22T10:29:42;15.15;;;13.75;;
77581;SDS011;66726;52.388;9.986;2023-06-22T10:32:14;14.05;;;12.77;;
77581;SDS011;66726;52.388;9.986;2023-06-22T10:34:46;16.17;;;14.38;;
77581;SDS011;66726;52.388;9.986;2023-06-22T10:37:18;15.48;;;13.93;;
77581;SDS011;66726;52.388;9.986;2023-06-22T10:39:52;15.07;;;13.57;;
77581;SDS011;66726;52.388;9.986;2023-06-22T10:42:24;15.25;;;13.85;;
77581;SDS011;66726;52.388;9.986;2023-06-22T10:44:56;16.60;;;14.90;;
77581;SDS011;66726;52.388;9.986;2023-06-22T10:47:28;13.82;;;12.63;;
77581;SDS011;66726;52.388;9.986;2023-06-22T10:50:00;13.82;;;12.43;;
77581;SDS011;66726;52.388;9.986;2023-06-22T10:52:33;13.60;;;12.30;;
77581;SDS011;66726;52.388;9.986;2023-06-22T10:55:07;13.40;;;12.15;;
77581;SDS011;66726;52.388;9.986;2023-06-22T10:57:40;15.05;;;13.38;;
77581;SDS011;66726;52.388;9.986;2023-06-22T11:00:14;14.00;;;12.65;;
77581;SDS011;66726;52.388;9.986;2023-06-22T11:02:47;13.30;;;12.00;;
77581;SDS011;66726;52.388;9.986;2023-06-22T11:05:19;13.27;;;11.93;;
77581;SDS011;66726;52.388;9.986;2023-06-22T11:07:51;12.85;;;11.75;;
77581;SDS011;66726;52.388;9.986;2023-06-22T11:10:25;12.15;;;10.85;;
77581;SDS011;66726;52.388;9.986;2023-06-22T11:12:57;13.60;;;11.50;;
77581;SDS011;66726;52.388;9.986;2023-06-22T11:15:30;13.77;;;12.48;;
77581;SDS011;66726;52.388;9.986;2023-06-22T11:18:05;15.85;;;12.32;;
77581;SDS011;66726;52.388;9.986;2023-06-22T11:20:36;22.50;;;13.38;;
77581;SDS011;66726;52.388;9.986;2023-06-22T11:23:09;14.15;;;12.18;;
77581;SDS011;66726;52.388;9.986;2023-06-22T11:25:42;14.60;;;13.25;;
77581;SDS011;66726;52.388;9.986;2023-06-22T11:28:14;15.95;;;14.55;;
77581;SDS011;66726;52.388;9.986;2023-06-22T11:30:46;14.48;;;13.07;;
77581;SDS011;66726;52.388;9.986;2023-06-22T11:33:18;17.63;;;13.57;;
77581;SDS011;66726;52.388;9.986;2023-06-22T11:35:50;15.50;;;14.10;;
77581;SDS011;66726;52.388;9.986;2023-06-22T11:38:23;14.80;;;13.40;;
77581;SDS011;66726;52.388;9.986;2023-06-22T11:40:57;14.45;;;13.18;;
77581;SDS011;66726;52.388;9.986;2023-06-22T11:43:29;14.85;;;13.35;;
77581;SDS011;66726;52.388;9.986;2023-06-22T11:46:02;14.23;;;12.93;;
77581;SDS011;66726;52.388;9.986;2023-06-22T11:48:34;13.63;;;12.55;;
77581;SDS011;66726;52.388;9.986;2023-06-22T11:51:06;14.55;;;13.15;;
77581;SDS011;66726;52.388;9.986;2023-06-22T11:53:37;15.85;;;14.35;;
77581;SDS011;66726;52.388;9.986;2023-06-22T11:56:11;15.35;;;13.95;;
77581;SDS011;66726;52.388;9.986;2023-06-22T11:58:43;14.75;;;13.48;;
77581;SDS011;66726;52.388;9.986;2023-06-22T12:01:15;12.18;;;11.07;;
77581;SDS011;66726;52.388;9.986;2023-06-22T12:03:47;12.60;;;11.50;;
77581;SDS011;66726;52.388;9.986;2023-06-22T12:06:19;13.82;;;12.40;;
77581;SDS011;66726;52.388;9.986;2023-06-22T12:08:51;15.25;;;12.57;;
77581;SDS011;66726;52.388;9.986;2023-06-22T12:11:24;12.35;;;11.02;;
77581;SDS011;66726;52.388;9.986;2023-06-22T12:13:56;12.32;;;11.23;;
77581;SDS011;66726;52.388;9.986;2023-06-22T12:16:28;12.73;;;11.63;;
77581;SDS011;66726;52.388;9.986;2023-06-22T12:19:00;13.52;;;12.38;;
77581;SDS011;66726;52.388;9.986;2023-06-22T12:21:32;14.13;;;12.75;;
77581;SDS011;66726;52.388;9.986;2023-06-22T12:24:07;15.18;;;13.20;;
77581;SDS011;66726;52.388;9.986;2023-06-22T12:26:40;12.13;;;11.13;;
77581;SDS011;66726;52.388;9.986;2023-06-22T12:29:12;13.27;;;11.90;;
77581;SDS011;66726;52.388;9.986;2023-06-22T12:31:44;12.43;;;11.43;;
77581;SDS011;66726;52.388;9.986;2023-06-22T12:34:16;10.98;;;10.07;;
77581;SDS011;66726;52.388;9.986;2023-06-22T12:36:48;11.07;;;10.02;;
77581;SDS011;66726;52.388;9.986;2023-06-22T12:39:20;12.55;;;11.35;;
77581;SDS011;66726;52.388;9.986;2023-06-22T12:41:54;13.65;;;12.50;;
77581;SDS011;66726;52.388;9.986;2023-06-22T12:44:25;13.82;;;12.52;;
77581;SDS011;66726;52.388;9.986;2023-06-22T12:46:57;15.20;;;13.70;;
77581;SDS011;66726;52.388;9.986;2023-06-22T12:49:29;14.20;;;12.88;;
77581;SDS011;66726;52.388;9.986;2023-06-22T12:52:01;11.73;;;10.57;;
77581;SDS011;66726;52.388;9.986;2023-06-22T12:54:38;13.77;;;12.48;;
77581;SDS011;66726;52.388;9.986;2023-06-22T12:57:21;12.93;;;11.45;;
77581;SDS011;66726;52.388;9.986;2023-06-22T12:59:53;15.25;;;13.68;;
77581;SDS011;66726;52.388;9.986;2023-06-22T13:02:27;12.30;;;10.95;;
77581;SDS011;66726;52.388;9.986;2023-06-22T13:04:58;12.15;;;11.05;;
77581;SDS011;66726;52.388;9.986;2023-06-22T13:07:31;12.13;;;11.02;;
77581;SDS011;66726;52.388;9.986;2023-06-22T13:10:04;12.38;;;11.10;;
77581;SDS011;66726;52.388;9.986;2023-06-22T13:12:38;12.05;;;10.85;;
77581;SDS011;66726;52.388;9.986;2023-06-22T13:15:09;11.50;;;10.55;;
77581;SDS011;66726;52.388;9.986;2023-06-22T13:17:41;12.70;;;11.40;;
77581;SDS011;66726;52.388;9.986;2023-06-22T13:20:13;12.18;;;11.07;;
77581;SDS011;66726;52.388;9.986;2023-06-22T13:22:45;12.85;;;11.50;;
77581;SDS011;66726;52.388;9.986;2023-06-22T13:25:17;13.55;;;12.43;;
77581;SDS011;66726;52.388;9.986;2023-06-22T13:27:54;15.45;;;12.40;;
77581;SDS011;66726;52.388;9.986;2023-06-22T13:30:28;14.35;;;12.77;;
77581;SDS011;66726;52.388;9.986;2023-06-22T13:33:00;14.88;;;13.60;;
77581;SDS011;66726;52.388;9.986;2023-06-22T13:35:32;14.63;;;13.43;;
77581;SDS011;66726;52.388;9.986;2023-06-22T13:38:04;14.85;;;13.43;;
77581;SDS011;66726;52.388;9.986;2023-06-22T13:40:35;15.02;;;13.65;;
77581;SDS011;66726;52.388;9.986;2023-06-22T13:43:09;14.73;;;13.27;;
77581;SDS011;66726;52.388;9.986;2023-06-22T13:45:41;14.60;;;13.15;;
77581;SDS011;66726;52.388;9.986;2023-06-22T13:48:13;13.82;;;12.57;;
77581;SDS011;66726;52.388;9.986;2023-06-22T13:50:45;14.40;;;13.07;;
77581;SDS011;66726;52.388;9.986;2023-06-22T13:53:17;12.38;;;11.27;;
77581;SDS011;66726;52.388;9.986;2023-06-22T13:55:50;12.35;;;11.15;;
77581;SDS011;66726;52.388;9.986;2023-06-22T13:58:23;13.23;;;12.13;;
77581;SDS011;66726;52.388;9.986;2023-06-22T14:00:54;12.48;;;11.48;;
77581;SDS011;66726;52.388;9.986;2023-06-22T14:03:26;13.45;;;12.25;;
77581;SDS011;66726;52.388;9.986;2023-06-22T14:05:58;12.88;;;11.77;;
77581;SDS011;66726;52.388;9.986;2023-06-22T14:08:30;13.38;;;12.13;;
77581;SDS011;66726;52.388;9.986;2023-06-22T14:11:07;13.85;;;12.55;;
77581;SDS011;66726;52.388;9.986;2023-06-22T14:13:41;14.98;;;13.68;;
77581;SDS011;66726;52.388;9.986;2023-06-22T14:16:13;20.65;;;18.70;;
77581;SDS011;66726;52.388;9.986;2023-06-22T14:18:45;13.80;;;12.70;;
77581;SDS011;66726;52.388;9.986;2023-06-22T14:21:18;14.10;;;12.80;;
77581;SDS011;66726;52.388;9.986;2023-06-22T14:23:49;13.73;;;12.50;;
77581;SDS011;66726;52.388;9.986;2023-06-22T14:26:22;13.77;;;12.45;;
77581;SDS011;66726;52.388;9.986;2023-06-22T14:28:55;14.75;;;13.43;;
77581;SDS011;66726;52.388;9.986;2023-06-22T14:31:26;16.33;;;14.82;;
77581;SDS011;66726;52.388;9.986;2023-06-22T14:34:00;15.10;;;13.73;;
77581;SDS011;66726;52.388;9.986;2023-06-22T14:36:32;15.27;;;13.80;;
77581;SDS011;66726;52.388;9.986;2023-06-22T14:39:04;16.58;;;15.07;;
77581;SDS011;66726;52.388;9.986;2023-06-22T14:41:36;14.95;;;13.45;;
77581;SDS011;66726;52.388;9.986;2023-06-22T14:44:09;15.50;;;14.05;;
77581;SDS011;66726;52.388;9.986;2023-06-22T14:46:42;15.35;;;14.05;;
77581;SDS011;66726;52.388;9.986;2023-06-22T14:49:14;14.52;;;12.77;;
77581;SDS011;66726;52.388;9.986;2023-06-22T14:51:47;13.75;;;12.48;;
77581;SDS011;66726;52.388;9.986;2023-06-22T14:54:19;14.85;;;13.30;;
77581;SDS011;66726;52.388;9.986;2023-06-22T14:56:51;13.23;;;12.02;;
77581;SDS011;66726;52.388;9.986;2023-06-22T14:59:25;14.38;;;12.98;;